Cuyuna, Minnesota
Current Conditions -  °F | °C
As of 12:13 PM on Friday 31 Oct 2014 (Local Time) from KAIT Reporting Station
Clear Clear  
Wind Chill: 36°   Ceiling: Unl
Heat Index: 36°   Visibility: 10mi
Dew Point: 18°   Wind: 3mph
Humidity: 48%   Direction: 300°WNW
Pressure: 30.54"   Gusts: NA
Location:  46.4516°N, 93.8664°W
Report Text: KAIT 311713Z AUTO 30003KT 10SM CLR 02/M08 A3054 RMK AO2
Loading
Personal Weather Stations






























Interactive Weather Map
Tropical Storm Tracking
New forecast layout! Learn more

10-Day Weather Forecast

Advertisements
Track Severe Weather on mobile